createdAt,value
2019-03-28T00:00:40.794Z,20.50
2019-03-28T00:03:27.410Z,23.07
2019-03-28T00:05:55.014Z,22.87
2019-03-28T00:08:22.283Z,21.37
2019-03-28T00:10:49.873Z,21.10
2019-03-28T00:13:17.301Z,21.37
2019-03-28T00:15:44.887Z,19.67
2019-03-28T00:18:12.747Z,20.03
2019-03-28T00:20:40.492Z,19.43
2019-03-28T00:23:27.472Z,20.57
2019-03-28T00:25:55.392Z,22.43
2019-03-28T00:28:22.983Z,21.60
2019-03-28T00:30:50.751Z,21.27
2019-03-28T00:33:18.396Z,21.07
2019-03-28T00:35:45.810Z,21.47
2019-03-28T00:38:13.328Z,20.33
2019-03-28T00:40:40.857Z,18.77
2019-03-28T00:43:08.137Z,22.30
2019-03-28T00:45:35.798Z,21.93
2019-03-28T00:48:03.517Z,22.83
2019-03-28T00:50:33.031Z,20.70
2019-03-28T00:53:00.809Z,20.73
2019-03-28T00:55:28.881Z,21.97
2019-03-28T00:57:57.053Z,19.70
2019-03-28T01:00:25.122Z,19.93
2019-03-28T01:02:52.830Z,19.50
2019-03-28T01:05:20.461Z,19.47
2019-03-28T01:07:48.165Z,21.20
2019-03-28T01:10:15.926Z,19.50
2019-03-28T01:12:55.954Z,19.67
2019-03-28T01:15:23.667Z,19.33
2019-03-28T01:17:51.367Z,20.57
2019-03-28T01:20:19.152Z,17.33
2019-03-28T01:22:47.196Z,18.90
2019-03-28T01:25:15.263Z,19.00
2019-03-28T01:27:42.896Z,19.20
2019-03-28T01:30:10.714Z,18.20
2019-03-28T01:32:38.709Z,17.80
2019-03-28T01:35:06.434Z,18.70
2019-03-28T01:37:34.138Z,17.90
2019-03-28T01:40:01.775Z,17.63
2019-03-28T01:42:29.845Z,17.90
2019-03-28T01:44:57.925Z,19.33
2019-03-28T01:47:25.623Z,16.97
2019-03-28T01:49:53.238Z,17.50
2019-03-28T01:52:21.453Z,18.67
2019-03-28T01:54:49.215Z,17.33
2019-03-28T01:57:16.916Z,19.87
2019-03-28T01:59:45.182Z,19.50
2019-03-28T02:02:12.828Z,18.37
2019-03-28T02:04:40.478Z,16.67
2019-03-28T02:07:08.240Z,16.03
2019-03-28T02:09:35.866Z,18.90
2019-03-28T02:12:03.516Z,17.57
2019-03-28T02:14:31.276Z,17.33
2019-03-28T02:16:58.909Z,18.20
2019-03-28T02:19:26.570Z,18.77
2019-03-28T02:21:54.335Z,19.93
2019-03-28T02:24:22.144Z,18.47
2019-03-28T02:26:49.780Z,20.77
2019-03-28T02:29:17.474Z,20.93
2019-03-28T02:31:45.488Z,21.00
2019-03-28T02:34:13.136Z,21.90
2019-03-28T02:36:40.864Z,20.07
2019-03-28T02:39:08.489Z,20.53
2019-03-28T02:41:36.140Z,20.40
2019-03-28T02:44:03.975Z,21.77
2019-03-28T02:46:31.659Z,22.57
2019-03-28T02:49:00.166Z,20.13
2019-03-28T02:51:27.877Z,21.67
2019-03-28T02:53:55.886Z,20.03
2019-03-28T02:56:23.671Z,22.80
2019-03-28T02:58:51.333Z,21.83
2019-03-28T03:01:19.376Z,22.77
2019-03-28T03:03:47.964Z,19.23
2019-03-28T03:06:16.047Z,20.27
2019-03-28T03:08:43.677Z,21.37
2019-03-28T03:11:11.402Z,21.93
2019-03-28T03:13:39.867Z,21.60
2019-03-28T03:16:07.950Z,20.23
2019-03-28T03:18:35.599Z,23.37
2019-03-28T03:21:03.346Z,20.93
2019-03-28T03:23:31.280Z,21.17
2019-03-28T03:25:59.391Z,19.97
2019-03-28T03:28:27.461Z,23.33
2019-03-28T03:30:55.102Z,22.73
2019-03-28T03:33:23.202Z,20.00
2019-03-28T03:35:50.926Z,23.90
2019-03-28T03:38:18.768Z,21.93
2019-03-28T03:40:46.666Z,21.90
2019-03-28T03:43:14.852Z,21.60
2019-03-28T03:45:42.844Z,20.57
2019-03-28T03:48:12.004Z,24.57
2019-03-28T03:50:40.072Z,22.27
2019-03-28T03:53:07.595Z,24.17
2019-03-28T03:55:36.522Z,21.87
2019-03-28T03:58:15.727Z,26.90
2019-03-28T04:03:42.521Z,22.00
2019-03-28T04:06:09.794Z,24.33
2019-03-28T04:08:37.362Z,25.40
2019-03-28T04:11:04.962Z,24.20
2019-03-28T04:13:32.523Z,23.73
2019-03-28T04:15:59.902Z,25.67
2019-03-28T04:18:27.967Z,23.87
2019-03-28T04:20:55.538Z,22.87
2019-03-28T04:23:22.905Z,22.73
2019-03-28T04:25:50.365Z,23.20
2019-03-28T04:28:30.721Z,24.77
2019-03-28T04:30:47.676Z,22.83
2019-03-28T04:33:15.490Z,22.83
2019-03-28T04:35:43.134Z,21.77
2019-03-28T04:38:10.781Z,18.83
2019-03-28T04:40:38.800Z,18.83
2019-03-28T04:43:06.881Z,21.03
2019-03-28T04:45:34.487Z,19.73
2019-03-28T04:48:02.176Z,18.83
2019-03-28T04:50:29.816Z,20.43
2019-03-28T04:52:57.475Z,18.63
2019-03-28T04:55:25.156Z,17.73
2019-03-28T04:57:53.181Z,18.97
2019-03-28T05:01:01.917Z,20.83
2019-03-28T05:03:29.837Z,18.10
2019-03-28T05:05:58.435Z,17.90
2019-03-28T05:08:27.496Z,17.07
2019-03-28T05:10:54.785Z,18.67
2019-03-28T05:13:22.075Z,17.63
2019-03-28T05:15:49.394Z,18.13
2019-03-28T05:18:16.668Z,19.67
2019-03-28T05:20:44.299Z,18.17
2019-03-28T05:23:11.808Z,16.93
2019-03-28T05:25:39.352Z,19.13
2019-03-28T05:28:07.043Z,19.67
2019-03-28T05:30:34.372Z,15.13
2019-03-28T05:33:01.765Z,16.77
2019-03-28T05:35:29.725Z,17.33
2019-03-28T05:37:57.485Z,18.43
2019-03-28T05:40:24.764Z,15.97
2019-03-28T05:42:52.165Z,17.87
2019-03-28T05:45:19.510Z,18.17
2019-03-28T05:47:46.934Z,17.20
2019-03-28T05:50:14.586Z,19.17
2019-03-28T05:52:42.273Z,18.87
2019-03-28T05:55:09.665Z,17.13
2019-03-28T05:57:37.268Z,17.40
2019-03-28T06:00:46.689Z,17.37
2019-03-28T06:03:14.306Z,19.80
2019-03-28T06:05:41.975Z,19.47
2019-03-28T06:08:10.287Z,20.03
2019-03-28T06:10:38.130Z,18.30
2019-03-28T06:13:06.273Z,17.80
2019-03-28T06:15:34.274Z,16.93
2019-03-28T06:18:01.914Z,21.20
2019-03-28T06:20:30.256Z,17.37
2019-03-28T06:22:59.486Z,17.20
2019-03-28T06:25:26.799Z,16.97
2019-03-28T06:27:54.253Z,22.83
2019-03-28T06:30:22.002Z,27.27
2019-03-28T06:32:49.667Z,26.17
2019-03-28T06:35:17.039Z,26.37
2019-03-28T06:37:44.444Z,22.03
2019-03-28T06:40:11.911Z,32.67
2019-03-28T06:42:59.314Z,20.07
2019-03-28T06:45:27.206Z,45.43
2019-03-28T06:47:54.983Z,117.23
2019-03-28T06:50:22.965Z,27.73
2019-03-28T06:52:50.836Z,20.17
2019-03-28T06:55:18.851Z,23.60
2019-03-28T06:57:46.548Z,44.00
2019-03-28T07:00:14.663Z,22.80
2019-03-28T07:02:43.452Z,96.07
2019-03-28T07:05:11.569Z,19.80
2019-03-28T07:07:39.185Z,43.00
2019-03-28T07:10:07.600Z,37.67
2019-03-28T07:12:35.754Z,22.23
2019-03-28T07:15:04.494Z,20.43
2019-03-28T07:17:51.200Z,21.93
2019-03-28T07:20:38.815Z,20.53
2019-03-28T07:23:06.979Z,22.20
2019-03-28T07:25:47.316Z,21.50
2019-03-28T07:28:15.762Z,20.17
2019-03-28T07:30:43.378Z,20.30
2019-03-28T07:33:11.043Z,21.53
2019-03-28T07:35:39.418Z,20.97
2019-03-28T07:38:07.018Z,22.30
2019-03-28T07:40:34.689Z,21.33
2019-03-28T07:43:02.649Z,19.97
2019-03-28T07:45:30.377Z,23.00
2019-03-28T07:47:58.229Z,23.50
2019-03-28T07:50:26.538Z,21.70
2019-03-28T07:52:54.601Z,19.03
2019-03-28T07:55:22.202Z,46.53
2019-03-28T07:57:49.945Z,25.70
2019-03-28T08:00:58.086Z,22.53
2019-03-28T08:03:46.910Z,23.17
2019-03-28T08:09:07.182Z,24.20
2019-03-28T08:11:35.101Z,25.47
2019-03-28T08:14:02.804Z,22.53
2019-03-28T08:16:30.524Z,26.20
2019-03-28T08:18:58.631Z,25.37
2019-03-28T08:24:21.121Z,26.17
2019-03-28T08:27:00.613Z,23.43
2019-03-28T08:29:28.711Z,21.37
2019-03-28T08:31:57.384Z,22.70
2019-03-28T08:34:25.677Z,22.87
2019-03-28T08:36:53.565Z,22.20
2019-03-28T08:40:01.846Z,21.50
2019-03-28T08:42:29.598Z,26.93
2019-03-28T08:45:16.414Z,24.97
2019-03-28T08:47:44.530Z,24.23
2019-03-28T08:50:13.537Z,24.17
2019-03-28T08:52:41.524Z,28.37
2019-03-28T08:55:10.299Z,23.87
2019-03-28T08:57:39.185Z,27.53
2019-03-28T09:00:35.355Z,27.70
2019-03-28T09:02:56.982Z,22.37
2019-03-28T09:05:24.739Z,20.93
2019-03-28T09:07:52.418Z,20.17
2019-03-28T09:10:19.785Z,22.13
2019-03-28T09:12:47.043Z,24.97
2019-03-28T09:15:14.998Z,22.97
2019-03-28T09:17:43.480Z,22.63
2019-03-28T09:20:12.435Z,21.70
2019-03-28T09:22:42.220Z,21.30
2019-03-28T09:25:12.395Z,19.87
2019-03-28T09:27:53.363Z,19.87
2019-03-28T09:30:48.185Z,19.30
2019-03-28T09:33:11.213Z,17.33
2019-03-28T09:35:38.796Z,21.50
2019-03-28T09:38:07.779Z,21.90
2019-03-28T09:40:38.487Z,22.23
2019-03-28T09:43:06.226Z,22.77
2019-03-28T09:45:33.617Z,22.33
2019-03-28T09:48:01.602Z,22.03
2019-03-28T09:50:30.243Z,22.23
2019-03-28T09:52:57.593Z,22.80
2019-03-28T09:55:25.085Z,20.30
2019-03-28T09:57:53.787Z,23.10
2019-03-28T10:03:16.262Z,19.97
2019-03-28T10:05:43.506Z,19.53
2019-03-28T10:08:11.153Z,22.77
2019-03-28T10:10:38.469Z,22.13
2019-03-28T10:13:06.117Z,21.60
2019-03-28T10:15:36.665Z,20.17
2019-03-28T10:18:03.058Z,23.23
2019-03-28T10:20:49.670Z,24.93
2019-03-28T10:23:39.741Z,21.77
2019-03-28T10:26:06.632Z,21.50
2019-03-28T10:28:35.318Z,23.27
2019-03-28T10:31:15.471Z,20.57
2019-03-28T10:33:51.260Z,19.03
2019-03-28T10:36:19.353Z,22.07
2019-03-28T10:38:46.739Z,20.17
2019-03-28T10:41:14.346Z,21.30
2019-03-28T10:43:41.792Z,18.47
2019-03-28T10:46:09.167Z,20.93
2019-03-28T10:48:36.608Z,18.80
2019-03-28T10:51:03.931Z,24.27
2019-03-28T10:53:31.526Z,25.90
2019-03-28T10:55:58.909Z,22.50
2019-03-28T10:58:46.210Z,28.20
2019-03-28T11:01:16.532Z,22.67
2019-03-28T11:03:43.467Z,22.83
2019-03-28T11:06:52.007Z,24.43
2019-03-28T11:09:20.232Z,20.43
2019-03-28T11:11:48.544Z,18.87
2019-03-28T11:14:16.923Z,22.23
2019-03-28T11:16:47.966Z,20.97
2019-03-28T11:19:15.743Z,18.43
2019-03-28T11:22:02.984Z,18.97
2019-03-28T11:24:31.583Z,20.10
2019-03-28T11:27:00.831Z,23.57
2019-03-28T11:29:28.587Z,19.20
2019-03-28T11:31:56.231Z,19.23
2019-03-28T11:34:23.878Z,17.77
2019-03-28T11:36:52.101Z,17.93
2019-03-28T11:39:20.877Z,16.73
2019-03-28T11:41:50.084Z,18.57
2019-03-28T11:44:18.151Z,17.00
2019-03-28T11:46:46.098Z,17.60
2019-03-28T11:49:14.522Z,22.80
2019-03-28T11:51:42.556Z,23.33
2019-03-28T11:54:10.643Z,19.10
2019-03-28T11:56:38.576Z,22.17
2019-03-28T11:59:06.625Z,20.53
2019-03-28T12:01:34.277Z,18.17
2019-03-28T12:04:01.910Z,18.47
2019-03-28T12:06:29.717Z,19.63
2019-03-28T12:08:57.345Z,16.03
2019-03-28T12:11:25.425Z,16.37
2019-03-28T12:13:53.513Z,18.33
2019-03-28T12:16:21.133Z,16.60
2019-03-28T12:18:48.795Z,17.40
2019-03-28T12:21:16.515Z,16.27
2019-03-28T12:24:03.331Z,16.83
2019-03-28T12:26:31.029Z,14.67
2019-03-28T12:28:59.494Z,14.40
2019-03-28T12:31:27.073Z,15.87
2019-03-28T12:33:54.832Z,14.17
2019-03-28T12:36:22.474Z,16.50
2019-03-28T12:38:50.297Z,17.83
2019-03-28T12:41:17.975Z,15.80
2019-03-28T12:43:46.001Z,19.47
2019-03-28T12:46:13.624Z,16.63
2019-03-28T12:48:41.309Z,16.50
2019-03-28T12:51:08.907Z,14.67
2019-03-28T12:53:36.690Z,14.63
2019-03-28T12:56:04.436Z,14.57
2019-03-28T12:58:32.093Z,13.43
2019-03-28T13:01:00.125Z,12.60
2019-03-28T13:03:31.256Z,14.33
2019-03-28T13:05:57.106Z,12.70
2019-03-28T13:08:25.392Z,13.03
2019-03-28T13:10:53.602Z,13.23
2019-03-28T13:13:41.932Z,14.57
2019-03-28T13:16:09.701Z,12.43
2019-03-28T13:18:37.401Z,13.73
2019-03-28T13:21:13.217Z,15.67
2019-03-28T13:23:34.866Z,14.70
2019-03-28T13:26:02.731Z,13.87
2019-03-28T13:28:30.007Z,15.43
2019-03-28T13:30:57.647Z,15.47
2019-03-28T13:33:25.513Z,19.53
2019-03-28T13:35:52.784Z,16.23
2019-03-28T13:38:20.413Z,15.47
2019-03-28T13:40:48.395Z,13.93
2019-03-28T13:43:16.361Z,14.47
2019-03-28T13:45:43.804Z,15.63
2019-03-28T13:48:13.659Z,13.40
2019-03-28T13:50:40.576Z,15.87
2019-03-28T13:53:09.015Z,13.67
2019-03-28T13:55:36.856Z,14.57
2019-03-28T13:58:04.514Z,15.37
2019-03-28T14:00:33.333Z,17.13
2019-03-28T14:03:01.263Z,13.77
2019-03-28T14:05:29.089Z,12.63
2019-03-28T14:07:57.630Z,15.77
2019-03-28T14:10:25.269Z,14.73
2019-03-28T14:12:52.906Z,12.47
2019-03-28T14:15:20.648Z,12.43
2019-03-28T14:17:48.301Z,14.47
2019-03-28T14:20:16.041Z,12.77
2019-03-28T14:22:43.905Z,12.53
2019-03-28T14:25:11.685Z,12.40
2019-03-28T14:27:39.526Z,12.10
2019-03-28T14:33:11.025Z,12.33
2019-03-28T14:35:32.518Z,14.00
2019-03-28T14:38:00.213Z,12.33
2019-03-28T14:40:28.616Z,11.60
2019-03-28T14:42:58.694Z,12.10
2019-03-28T14:45:26.336Z,13.93
2019-03-28T14:47:54.033Z,14.43
2019-03-28T14:51:03.409Z,14.10
2019-03-28T14:53:31.608Z,16.43
2019-03-28T14:56:39.811Z,21.07
2019-03-28T14:59:48.366Z,28.20
2019-03-28T15:02:18.886Z,21.43
2019-03-28T15:04:46.544Z,17.17
2019-03-28T15:07:14.399Z,18.70
2019-03-28T15:09:42.516Z,21.03
2019-03-28T15:12:10.567Z,18.50
2019-03-28T15:14:38.363Z,16.33
2019-03-28T15:17:06.449Z,15.33
2019-03-28T15:19:34.424Z,15.13
2019-03-28T15:22:02.368Z,15.13
2019-03-28T15:24:31.014Z,13.83
2019-03-28T15:27:40.479Z,15.17
2019-03-28T15:30:48.851Z,13.00
2019-03-28T15:33:17.603Z,13.50
2019-03-28T15:35:46.114Z,13.77
2019-03-28T15:38:14.111Z,31.13
2019-03-28T15:40:41.983Z,17.87
2019-03-28T15:43:09.648Z,19.87
2019-03-28T15:45:37.815Z,20.40
2019-03-28T15:48:05.984Z,19.10
2019-03-28T15:50:33.618Z,18.17
2019-03-28T15:53:01.217Z,20.83
2019-03-28T15:55:29.197Z,20.73
2019-03-28T15:57:56.810Z,23.23
2019-03-28T16:00:24.401Z,25.37
2019-03-28T16:02:52.495Z,24.27
2019-03-28T16:05:20.520Z,23.53
2019-03-28T16:07:48.212Z,24.30
2019-03-28T16:10:36.533Z,25.87
2019-03-28T16:13:04.677Z,21.87
2019-03-28T16:15:39.746Z,24.77
2019-03-28T16:18:07.138Z,27.67
2019-03-28T16:20:34.537Z,26.27
2019-03-28T16:23:01.842Z,28.23
2019-03-28T16:25:29.499Z,25.73
2019-03-28T16:27:57.114Z,27.33
2019-03-28T16:30:44.220Z,33.00
2019-03-28T16:33:11.869Z,29.73
2019-03-28T16:35:39.538Z,25.90
2019-03-28T16:38:07.884Z,38.67
2019-03-28T16:40:36.031Z,27.80
2019-03-28T16:43:03.783Z,29.93
2019-03-28T16:45:31.447Z,26.17
2019-03-28T16:47:59.050Z,24.63
2019-03-28T16:50:27.581Z,35.37
2019-03-28T16:52:55.342Z,21.57
2019-03-28T16:55:26.449Z,29.17
2019-03-28T16:57:52.270Z,24.27
2019-03-28T17:03:14.564Z,23.10
2019-03-28T17:05:42.027Z,22.50
2019-03-28T17:08:09.432Z,26.60
2019-03-28T17:10:56.113Z,26.30
2019-03-28T17:13:23.437Z,22.43
2019-03-28T17:15:51.402Z,21.17
2019-03-28T17:18:19.448Z,22.37
2019-03-28T17:20:46.878Z,23.33
2019-03-28T17:23:14.246Z,25.33
2019-03-28T17:25:41.914Z,24.37
2019-03-28T17:28:09.593Z,28.63
2019-03-28T17:30:36.877Z,24.90
2019-03-28T17:33:04.299Z,25.17
2019-03-28T17:35:33.793Z,26.10
2019-03-28T17:38:01.175Z,31.17
2019-03-28T17:40:28.819Z,25.40
2019-03-28T17:42:56.152Z,23.10
2019-03-28T17:45:24.199Z,21.33
2019-03-28T17:47:52.167Z,21.53
2019-03-28T17:50:19.637Z,26.17
2019-03-28T17:52:47.266Z,28.40
2019-03-28T17:55:14.808Z,25.80
2019-03-28T17:57:42.323Z,28.27
2019-03-28T18:00:09.940Z,26.63
2019-03-28T18:02:38.275Z,27.37
2019-03-28T18:05:09.765Z,25.23
2019-03-28T18:07:35.911Z,25.63
2019-03-28T18:10:03.775Z,27.13
2019-03-28T18:12:31.245Z,23.53
2019-03-28T18:14:58.535Z,22.40
2019-03-28T18:17:45.208Z,24.83
2019-03-28T18:20:12.583Z,29.47
2019-03-28T18:22:40.275Z,24.33
2019-03-28T18:25:07.953Z,23.87
2019-03-28T18:27:35.780Z,29.70
2019-03-28T18:30:05.304Z,23.00
2019-03-28T18:32:33.944Z,28.50
2019-03-28T18:35:20.762Z,27.20
2019-03-28T18:37:48.983Z,24.70
2019-03-28T18:40:16.882Z,26.63
2019-03-28T18:43:06.354Z,25.87
2019-03-28T18:45:46.310Z,26.23
2019-03-28T18:48:27.042Z,24.77
2019-03-28T18:50:43.461Z,33.30
2019-03-28T18:53:11.109Z,29.23
2019-03-28T18:55:38.770Z,27.83
2019-03-28T18:58:06.386Z,30.50
2019-03-28T19:00:34.601Z,25.33
2019-03-28T19:03:02.721Z,28.27
2019-03-28T19:05:30.855Z,29.83
2019-03-28T19:07:58.467Z,28.93
2019-03-28T19:10:26.623Z,27.10
2019-03-28T19:12:54.243Z,30.23
2019-03-28T19:15:21.892Z,30.83
2019-03-28T19:17:50.027Z,26.40
2019-03-28T19:20:17.679Z,28.60
2019-03-28T19:22:45.693Z,31.30
2019-03-28T19:25:13.993Z,34.13
2019-03-28T19:27:41.707Z,28.83
2019-03-28T19:30:49.936Z,33.40
2019-03-28T19:33:18.296Z,33.23
2019-03-28T19:35:45.698Z,32.53
2019-03-28T19:38:13.431Z,30.67
2019-03-28T19:40:41.061Z,34.43
2019-03-28T19:43:19.837Z,32.20
2019-03-28T19:45:38.559Z,34.43
2019-03-28T19:48:06.718Z,29.10
2019-03-28T19:50:34.691Z,29.73
2019-03-28T19:53:21.373Z,33.27
2019-03-28T19:55:48.624Z,38.07
2019-03-28T19:58:15.882Z,34.57
2019-03-28T20:00:44.025Z,33.63
2019-03-28T20:03:12.923Z,33.03
2019-03-28T20:05:47.654Z,41.87
2019-03-28T20:08:16.112Z,39.60
2019-03-28T20:10:38.982Z,41.23
2019-03-28T20:13:06.412Z,41.40
2019-03-28T20:15:33.995Z,40.20
2019-03-28T20:18:03.000Z,40.63
2019-03-28T20:20:31.063Z,33.93
2019-03-28T20:22:59.313Z,34.90
2019-03-28T20:25:26.853Z,34.77
2019-03-28T20:27:54.410Z,31.17
2019-03-28T20:31:02.952Z,36.77
2019-03-28T20:33:30.534Z,34.20
2019-03-28T20:36:18.650Z,35.67
2019-03-28T20:38:28.025Z,35.90
2019-03-28T20:40:58.362Z,40.17
2019-03-28T20:43:24.825Z,46.43
2019-03-28T20:45:52.632Z,41.97
2019-03-28T20:48:20.084Z,42.97
2019-03-28T20:51:03.484Z,43.23
2019-03-28T20:53:32.040Z,44.40
2019-03-28T20:55:59.874Z,41.10
2019-03-28T20:58:28.736Z,39.50
2019-03-28T21:00:57.582Z,41.90
2019-03-28T21:03:25.232Z,43.00
2019-03-28T21:05:52.981Z,36.80
2019-03-28T21:08:20.838Z,38.70
2019-03-28T21:10:48.558Z,39.97
2019-03-28T21:13:16.607Z,38.43
2019-03-28T21:15:44.375Z,36.23
2019-03-28T21:18:13.786Z,38.50
2019-03-28T21:20:41.103Z,38.17
2019-03-28T21:23:08.367Z,37.67
2019-03-28T21:25:35.624Z,35.53
2019-03-28T21:28:03.147Z,33.30
2019-03-28T21:30:30.407Z,33.93
2019-03-28T21:32:57.928Z,37.57
2019-03-28T21:35:26.907Z,33.50
2019-03-28T21:37:54.624Z,33.27
2019-03-28T21:40:21.878Z,33.03
2019-03-28T21:42:49.572Z,41.63
2019-03-28T21:45:16.940Z,38.13
2019-03-28T21:47:44.339Z,36.97
2019-03-28T21:50:12.039Z,38.43
2019-03-28T21:52:52.007Z,33.87
2019-03-28T21:55:19.707Z,36.77
2019-03-28T21:57:47.066Z,36.03
2019-03-28T22:00:35.915Z,43.07
2019-03-28T22:03:03.507Z,33.47
2019-03-28T22:05:31.064Z,33.13
2019-03-28T22:07:58.910Z,39.90
2019-03-28T22:10:26.448Z,38.67
2019-03-28T22:12:53.716Z,35.40
2019-03-28T22:15:21.034Z,39.83
2019-03-28T22:17:48.959Z,35.30
2019-03-28T22:20:16.125Z,42.57
2019-03-28T22:22:43.733Z,34.60
2019-03-28T22:25:11.098Z,33.90
2019-03-28T22:27:38.364Z,34.30
2019-03-28T22:30:25.332Z,33.67
2019-03-28T22:32:52.591Z,33.87
2019-03-28T22:35:20.135Z,30.80
2019-03-28T22:38:06.777Z,33.60
2019-03-28T22:40:34.631Z,32.30
2019-03-28T22:43:01.936Z,29.83
2019-03-28T22:45:29.675Z,24.10
2019-03-28T22:48:10.184Z,24.63
2019-03-28T22:50:26.502Z,26.30
2019-03-28T22:52:53.860Z,24.23
2019-03-28T22:55:21.178Z,26.30
2019-03-28T22:57:48.482Z,22.90
2019-03-28T23:00:16.702Z,21.07
2019-03-28T23:02:44.071Z,24.57
2019-03-28T23:05:11.851Z,25.50
2019-03-28T23:07:39.311Z,26.90
2019-03-28T23:10:06.953Z,23.87
2019-03-28T23:12:34.835Z,23.43
2019-03-28T23:15:04.959Z,23.93
2019-03-28T23:17:32.211Z,25.67
2019-03-28T23:19:59.756Z,24.93
2019-03-28T23:22:27.774Z,27.90
2019-03-28T23:24:55.133Z,27.97
2019-03-28T23:27:22.707Z,28.50
2019-03-28T23:29:50.310Z,26.90
2019-03-28T23:32:18.240Z,32.70
2019-03-28T23:34:45.808Z,29.60
2019-03-28T23:37:24.149Z,36.93
2019-03-28T23:39:42.955Z,36.13
2019-03-28T23:42:10.211Z,35.13
2019-03-28T23:44:37.646Z,36.00
2019-03-28T23:47:04.910Z,39.80
2019-03-28T23:49:32.240Z,40.17
2019-03-28T23:51:59.553Z,37.63
2019-03-28T23:54:27.174Z,35.97
2019-03-28T23:57:08.822Z,35.20
2019-03-28T23:59:36.449Z,36.10
